sensor_id;sensor_type;location;lat;lon;timestamp;pressure;altitude;pressure_sealevel;temperature;humidity
2675;BME280;1347;42.122;24.746;2023-01-27T00:00:38;98862.44;;;1.74;100.00
2675;BME280;1347;42.122;24.746;2023-01-27T00:03:05;98870.13;;;1.72;100.00
2675;BME280;1347;42.122;24.746;2023-01-27T00:05:32;98879.44;;;1.75;100.00
2675;BME280;1347;42.122;24.746;2023-01-27T00:07:59;98881.56;;;1.69;100.00
2675;BME280;1347;42.122;24.746;2023-01-27T00:10:26;98891.56;;;1.69;100.00
2675;BME280;1347;42.122;24.746;2023-01-27T00:12:54;98888.56;;;1.70;100.00
2675;BME280;1347;42.122;24.746;2023-01-27T00:15:39;98892.41;;;1.61;100.00
2675;BME280;1347;42.122;24.746;2023-01-27T00:18:06;98884.31;;;1.61;100.00
2675;BME280;1347;42.122;24.746;2023-01-27T00:20:33;98876.81;;;1.66;100.00
2675;BME280;1347;42.122;24.746;2023-01-27T00:23:18;98867.41;;;1.72;100.00
2675;BME280;1347;42.122;24.746;2023-01-27T00:26:04;98856.25;;;1.74;100.00
2675;BME280;1347;42.122;24.746;2023-01-27T00:28:33;98848.94;;;1.74;100.00
2675;BME280;1347;42.122;24.746;2023-01-27T00:31:01;98840.34;;;1.81;100.00
2675;BME280;1347;42.122;24.746;2023-01-27T00:33:28;98847.44;;;1.85;100.00
2675;BME280;1347;42.122;24.746;2023-01-27T00:35:58;98843.94;;;1.85;100.00
2675;BME280;1347;42.122;24.746;2023-01-27T00:38:26;98843.50;;;1.83;100.00
2675;BME280;1347;42.122;24.746;2023-01-27T00:40:54;98851.78;;;1.78;100.00
2675;BME280;1347;42.122;24.746;2023-01-27T00:43:40;98851.19;;;1.72;100.00
2675;BME280;1347;42.122;24.746;2023-01-27T00:46:07;98846.06;;;1.79;100.00
2675;BME280;1347;42.122;24.746;2023-01-27T00:48:34;98838.28;;;1.78;100.00
2675;BME280;1347;42.122;24.746;2023-01-27T00:51:01;98842.88;;;1.77;100.00
2675;BME280;1347;42.122;24.746;2023-01-27T00:53:29;98852.59;;;1.78;100.00
2675;BME280;1347;42.122;24.746;2023-01-27T00:55:57;98839.72;;;1.75;100.00
2675;BME280;1347;42.122;24.746;2023-01-27T00:58:24;98830.38;;;1.73;100.00
2675;BME280;1347;42.122;24.746;2023-01-27T01:00:53;98823.72;;;1.70;100.00
2675;BME280;1347;42.122;24.746;2023-01-27T01:03:20;98815.72;;;1.74;100.00
2675;BME280;1347;42.122;24.746;2023-01-27T01:05:48;98797.44;;;1.79;100.00
2675;BME280;1347;42.122;24.746;2023-01-27T01:08:14;98774.69;;;1.80;100.00
2675;BME280;1347;42.122;24.746;2023-01-27T01:10:42;98772.31;;;1.79;100.00
2675;BME280;1347;42.122;24.746;2023-01-27T01:13:08;98772.97;;;1.76;100.00
2675;BME280;1347;42.122;24.746;2023-01-27T01:15:36;98765.25;;;1.87;100.00
2675;BME280;1347;42.122;24.746;2023-01-27T01:18:06;98776.84;;;1.87;100.00
2675;BME280;1347;42.122;24.746;2023-01-27T01:20:36;98819.84;;;1.80;100.00
2675;BME280;1347;42.122;24.746;2023-01-27T01:23:03;98839.25;;;1.73;100.00
2675;BME280;1347;42.122;24.746;2023-01-27T01:25:30;98837.41;;;1.65;100.00
2675;BME280;1347;42.122;24.746;2023-01-27T01:27:57;98834.06;;;1.68;100.00
2675;BME280;1347;42.122;24.746;2023-01-27T01:30:24;98845.19;;;1.67;100.00
2675;BME280;1347;42.122;24.746;2023-01-27T01:32:52;98837.28;;;1.62;100.00
2675;BME280;1347;42.122;24.746;2023-01-27T01:35:21;98824.34;;;1.67;100.00
2675;BME280;1347;42.122;24.746;2023-01-27T01:37:49;98816.09;;;1.72;100.00
2675;BME280;1347;42.122;24.746;2023-01-27T01:40:16;98811.00;;;1.71;100.00
2675;BME280;1347;42.122;24.746;2023-01-27T01:42:57;98811.72;;;1.80;100.00
2675;BME280;1347;42.122;24.746;2023-01-27T01:45:45;98813.78;;;1.83;100.00
2675;BME280;1347;42.122;24.746;2023-01-27T01:48:17;98810.53;;;1.90;100.00
2675;BME280;1347;42.122;24.746;2023-01-27T01:50:51;98796.56;;;1.88;100.00
2675;BME280;1347;42.122;24.746;2023-01-27T01:53:21;98791.63;;;1.90;100.00
2675;BME280;1347;42.122;24.746;2023-01-27T01:55:54;98772.38;;;1.91;100.00
2675;BME280;1347;42.122;24.746;2023-01-27T01:58:23;98782.19;;;1.96;100.00
2675;BME280;1347;42.122;24.746;2023-01-27T02:00:53;98775.09;;;1.91;100.00
2675;BME280;1347;42.122;24.746;2023-01-27T02:03:21;98781.63;;;1.90;100.00
2675;BME280;1347;42.122;24.746;2023-01-27T02:05:51;98785.63;;;1.84;100.00
2675;BME280;1347;42.122;24.746;2023-01-27T02:08:21;98783.59;;;1.81;100.00
2675;BME280;1347;42.122;24.746;2023-01-27T02:10:51;98767.09;;;1.74;100.00
2675;BME280;1347;42.122;24.746;2023-01-27T02:13:19;98761.44;;;1.67;100.00
2675;BME280;1347;42.122;24.746;2023-01-27T02:15:46;98759.69;;;1.71;100.00
2675;BME280;1347;42.122;24.746;2023-01-27T02:18:13;98753.34;;;1.67;100.00
2675;BME280;1347;42.122;24.746;2023-01-27T02:20:42;98746.09;;;1.79;100.00
2675;BME280;1347;42.122;24.746;2023-01-27T02:23:27;98737.78;;;1.84;100.00
2675;BME280;1347;42.122;24.746;2023-01-27T02:25:58;98732.38;;;1.84;100.00
2675;BME280;1347;42.122;24.746;2023-01-27T02:28:28;98723.47;;;1.84;100.00
2675;BME280;1347;42.122;24.746;2023-01-27T02:30:55;98717.41;;;1.87;100.00
2675;BME280;1347;42.122;24.746;2023-01-27T02:33:22;98717.66;;;1.94;100.00
2675;BME280;1347;42.122;24.746;2023-01-27T02:35:57;98720.50;;;1.98;100.00
2675;BME280;1347;42.122;24.746;2023-01-27T02:38:26;98732.66;;;1.92;100.00
2675;BME280;1347;42.122;24.746;2023-01-27T02:41:00;98728.94;;;1.96;100.00
2675;BME280;1347;42.122;24.746;2023-01-27T02:43:27;98714.91;;;2.03;100.00
2675;BME280;1347;42.122;24.746;2023-01-27T02:45:54;98716.91;;;2.06;100.00
2675;BME280;1347;42.122;24.746;2023-01-27T02:48:21;98734.16;;;2.01;100.00
2675;BME280;1347;42.122;24.746;2023-01-27T02:50:48;98727.88;;;2.09;100.00
2675;BME280;1347;42.122;24.746;2023-01-27T02:53:15;98714.91;;;2.15;100.00
2675;BME280;1347;42.122;24.746;2023-01-27T02:55:42;98719.34;;;2.19;100.00
2675;BME280;1347;42.122;24.746;2023-01-27T02:58:10;98724.75;;;2.19;100.00
2675;BME280;1347;42.122;24.746;2023-01-27T03:00:40;98719.13;;;2.25;100.00
2675;BME280;1347;42.122;24.746;2023-01-27T03:03:10;98711.13;;;2.28;100.00
2675;BME280;1347;42.122;24.746;2023-01-27T03:05:37;98712.84;;;2.33;100.00
2675;BME280;1347;42.122;24.746;2023-01-27T03:08:04;98703.38;;;2.39;100.00
2675;BME280;1347;42.122;24.746;2023-01-27T03:10:31;98700.56;;;2.35;100.00
2675;BME280;1347;42.122;24.746;2023-01-27T03:12:58;98702.25;;;2.40;100.00
2675;BME280;1347;42.122;24.746;2023-01-27T03:15:26;98703.38;;;2.39;100.00
2675;BME280;1347;42.122;24.746;2023-01-27T03:18:11;98690.44;;;2.32;100.00
2675;BME280;1347;42.122;24.746;2023-01-27T03:20:41;98696.41;;;2.38;100.00
2675;BME280;1347;42.122;24.746;2023-01-27T03:23:08;98707.78;;;2.31;100.00
2675;BME280;1347;42.122;24.746;2023-01-27T03:25:35;98718.25;;;2.33;100.00
2675;BME280;1347;42.122;24.746;2023-01-27T03:28:02;98734.34;;;2.29;100.00
2675;BME280;1347;42.122;24.746;2023-01-27T03:30:58;98729.88;;;2.33;100.00
2675;BME280;1347;42.122;24.746;2023-01-27T03:33:30;98732.91;;;2.32;100.00
2675;BME280;1347;42.122;24.746;2023-01-27T03:35:59;98730.66;;;2.34;100.00
2675;BME280;1347;42.122;24.746;2023-01-27T03:38:44;98718.81;;;2.38;100.00
2675;BME280;1347;42.122;24.746;2023-01-27T03:41:28;98719.28;;;2.40;100.00
2675;BME280;1347;42.122;24.746;2023-01-27T03:44:13;98726.38;;;2.45;100.00
2675;BME280;1347;42.122;24.746;2023-01-27T03:46:59;98722.00;;;2.40;100.00
2675;BME280;1347;42.122;24.746;2023-01-27T03:49:26;98717.13;;;2.34;100.00
2675;BME280;1347;42.122;24.746;2023-01-27T03:51:52;98716.69;;;2.32;100.00
2675;BME280;1347;42.122;24.746;2023-01-27T03:54:19;98725.34;;;2.37;100.00
2675;BME280;1347;42.122;24.746;2023-01-27T03:56:46;98718.63;;;2.43;100.00
2675;BME280;1347;42.122;24.746;2023-01-27T03:59:13;98719.28;;;2.40;100.00
2675;BME280;1347;42.122;24.746;2023-01-27T04:01:40;98719.84;;;2.46;100.00
2675;BME280;1347;42.122;24.746;2023-01-27T04:04:09;98717.59;;;2.48;100.00
2675;BME280;1347;42.122;24.746;2023-01-27T04:06:54;98700.03;;;2.54;100.00
2675;BME280;1347;42.122;24.746;2023-01-27T04:09:24;98691.47;;;2.52;100.00
2675;BME280;1347;42.122;24.746;2023-01-27T04:11:52;98695.06;;;2.56;100.00
2675;BME280;1347;42.122;24.746;2023-01-27T04:14:24;98686.03;;;2.40;100.00
2675;BME280;1347;42.122;24.746;2023-01-27T04:16:53;98683.34;;;2.40;100.00
2675;BME280;1347;42.122;24.746;2023-01-27T04:19:21;98698.31;;;2.37;100.00
2675;BME280;1347;42.122;24.746;2023-01-27T04:21:48;98694.16;;;2.40;100.00
2675;BME280;1347;42.122;24.746;2023-01-27T04:24:16;98687.94;;;2.39;100.00
2675;BME280;1347;42.122;24.746;2023-01-27T04:26:48;98685.47;;;2.46;100.00
2675;BME280;1347;42.122;24.746;2023-01-27T04:29:16;98691.22;;;2.45;100.00
2675;BME280;1347;42.122;24.746;2023-01-27T04:31:45;98677.94;;;2.40;100.00
2675;BME280;1347;42.122;24.746;2023-01-27T04:34:12;98674.00;;;2.49;100.00
2675;BME280;1347;42.122;24.746;2023-01-27T04:36:41;98669.38;;;2.50;100.00
2675;BME280;1347;42.122;24.746;2023-01-27T04:39:08;98666.88;;;2.45;100.00
2675;BME280;1347;42.122;24.746;2023-01-27T04:41:36;98669.69;;;2.48;100.00
2675;BME280;1347;42.122;24.746;2023-01-27T04:44:04;98682.91;;;2.50;100.00
2675;BME280;1347;42.122;24.746;2023-01-27T04:46:31;98681.19;;;2.45;100.00
2675;BME280;1347;42.122;24.746;2023-01-27T04:48:58;98682.22;;;2.41;100.00
2675;BME280;1347;42.122;24.746;2023-01-27T04:51:25;98682.22;;;2.53;100.00
2675;BME280;1347;42.122;24.746;2023-01-27T04:53:53;98677.03;;;2.48;100.00
2675;BME280;1347;42.122;24.746;2023-01-27T04:56:24;98675.56;;;2.50;100.00
2675;BME280;1347;42.122;24.746;2023-01-27T04:58:51;98673.31;;;2.52;100.00
2675;BME280;1347;42.122;24.746;2023-01-27T05:01:18;98670.94;;;2.51;100.00
2675;BME280;1347;42.122;24.746;2023-01-27T05:03:45;98680.31;;;2.53;100.00
2675;BME280;1347;42.122;24.746;2023-01-27T05:06:13;98672.88;;;2.50;100.00
2675;BME280;1347;42.122;24.746;2023-01-27T05:08:40;98686.16;;;2.55;100.00
2675;BME280;1347;42.122;24.746;2023-01-27T05:11:08;98691.81;;;2.50;100.00
2675;BME280;1347;42.122;24.746;2023-01-27T05:13:35;98697.88;;;2.47;100.00
2675;BME280;1347;42.122;24.746;2023-01-27T05:16:04;98694.50;;;2.50;100.00
2675;BME280;1347;42.122;24.746;2023-01-27T05:18:31;98705.66;;;2.49;100.00
2675;BME280;1347;42.122;24.746;2023-01-27T05:20:58;98714.47;;;2.58;100.00
2675;BME280;1347;42.122;24.746;2023-01-27T05:23:26;98714.13;;;2.59;100.00
2675;BME280;1347;42.122;24.746;2023-01-27T05:26:10;98721.13;;;2.61;100.00
2675;BME280;1347;42.122;24.746;2023-01-27T05:28:39;98718.97;;;2.66;100.00
2675;BME280;1347;42.122;24.746;2023-01-27T05:31:08;98710.06;;;2.66;100.00
2675;BME280;1347;42.122;24.746;2023-01-27T05:33:37;98706.25;;;2.67;100.00
2675;BME280;1347;42.122;24.746;2023-01-27T05:36:05;98709.84;;;2.58;100.00
2675;BME280;1347;42.122;24.746;2023-01-27T05:38:32;98709.19;;;2.62;100.00
2675;BME280;1347;42.122;24.746;2023-01-27T05:41:01;98713.78;;;2.61;100.00
2675;BME280;1347;42.122;24.746;2023-01-27T05:43:31;98717.84;;;2.67;100.00
2675;BME280;1347;42.122;24.746;2023-01-27T05:46:03;98712.34;;;2.64;100.00
2675;BME280;1347;42.122;24.746;2023-01-27T05:48:33;98714.03;;;2.68;100.00
2675;BME280;1347;42.122;24.746;2023-01-27T05:51:00;98720.22;;;2.69;100.00
2675;BME280;1347;42.122;24.746;2023-01-27T05:53:27;98716.53;;;2.73;100.00
2675;BME280;1347;42.122;24.746;2023-01-27T05:55:54;98714.47;;;2.70;100.00
2675;BME280;1347;42.122;24.746;2023-01-27T05:58:21;98711.44;;;2.72;100.00
2675;BME280;1347;42.122;24.746;2023-01-27T06:00:49;98717.06;;;2.67;100.00
2675;BME280;1347;42.122;24.746;2023-01-27T06:03:17;98707.94;;;2.71;100.00
2675;BME280;1347;42.122;24.746;2023-01-27T06:05:54;98710.88;;;2.78;100.00
2675;BME280;1347;42.122;24.746;2023-01-27T06:08:22;98710.53;;;2.80;100.00
2675;BME280;1347;42.122;24.746;2023-01-27T06:10:50;98706.03;;;2.72;100.00
2675;BME280;1347;42.122;24.746;2023-01-27T06:13:17;98690.34;;;2.77;100.00
2675;BME280;1347;42.122;24.746;2023-01-27T06:15:45;98690.94;;;2.83;100.00
2675;BME280;1347;42.122;24.746;2023-01-27T06:18:16;98691.59;;;2.80;100.00
2675;BME280;1347;42.122;24.746;2023-01-27T06:20:44;98695.66;;;2.86;100.00
2675;BME280;1347;42.122;24.746;2023-01-27T06:23:13;98700.06;;;2.90;100.00
2675;BME280;1347;42.122;24.746;2023-01-27T06:25:41;98713.47;;;2.87;100.00
2675;BME280;1347;42.122;24.746;2023-01-27T06:28:09;98719.13;;;2.94;100.00
2675;BME280;1347;42.122;24.746;2023-01-27T06:30:37;98723.97;;;2.88;100.00
2675;BME280;1347;42.122;24.746;2023-01-27T06:33:05;98715.63;;;2.93;100.00
2675;BME280;1347;42.122;24.746;2023-01-27T06:35:34;98720.13;;;3.02;100.00
2675;BME280;1347;42.122;24.746;2023-01-27T06:38:03;98719.81;;;3.03;100.00
2675;BME280;1347;42.122;24.746;2023-01-27T06:40:31;98717.19;;;3.07;100.00
2675;BME280;1347;42.122;24.746;2023-01-27T06:42:59;98716.41;;;3.06;100.00
2675;BME280;1347;42.122;24.746;2023-01-27T06:45:26;98716.31;;;3.03;100.00
2675;BME280;1347;42.122;24.746;2023-01-27T06:47:53;98721.72;;;3.15;100.00
2675;BME280;1347;42.122;24.746;2023-01-27T06:50:21;98716.72;;;3.17;100.00
2675;BME280;1347;42.122;24.746;2023-01-27T06:52:50;98713.00;;;3.21;100.00
2675;BME280;1347;42.122;24.746;2023-01-27T06:55:18;98709.38;;;3.29;100.00
2675;BME280;1347;42.122;24.746;2023-01-27T06:57:45;98712.31;;;3.37;100.00
2675;BME280;1347;42.122;24.746;2023-01-27T07:00:13;98705.22;;;3.32;100.00
2675;BME280;1347;42.122;24.746;2023-01-27T07:02:40;98710.31;;;3.21;100.00
2675;BME280;1347;42.122;24.746;2023-01-27T07:05:08;98709.16;;;3.35;100.00
2675;BME280;1347;42.122;24.746;2023-01-27T07:07:35;98707.56;;;3.46;100.00
2675;BME280;1347;42.122;24.746;2023-01-27T07:10:05;98720.41;;;3.49;100.00
2675;BME280;1347;42.122;24.746;2023-01-27T07:12:32;98714.53;;;3.59;100.00
2675;BME280;1347;42.122;24.746;2023-01-27T07:15:02;98724.38;;;3.51;100.00
2675;BME280;1347;42.122;24.746;2023-01-27T07:17:29;98725.28;;;3.55;100.00
2675;BME280;1347;42.122;24.746;2023-01-27T07:19:56;98725.34;;;3.59;100.00
2675;BME280;1347;42.122;24.746;2023-01-27T07:22:23;98726.16;;;3.59;100.00
2675;BME280;1347;42.122;24.746;2023-01-27T07:24:50;98725.94;;;3.52;100.00
2675;BME280;1347;42.122;24.746;2023-01-27T07:27:19;98726.41;;;3.54;100.00
2675;BME280;1347;42.122;24.746;2023-01-27T07:29:46;98730.31;;;3.57;100.00
2675;BME280;1347;42.122;24.746;2023-01-27T07:32:12;98728.97;;;3.63;100.00
2675;BME280;1347;42.122;24.746;2023-01-27T07:34:39;98733.00;;;3.69;100.00
2675;BME280;1347;42.122;24.746;2023-01-27T07:37:06;98734.38;;;3.75;100.00
2675;BME280;1347;42.122;24.746;2023-01-27T07:39:35;98726.91;;;3.72;100.00
2675;BME280;1347;42.122;24.746;2023-01-27T07:42:02;98720.88;;;3.91;100.00
2675;BME280;1347;42.122;24.746;2023-01-27T07:44:31;98721.16;;;4.01;100.00
2675;BME280;1347;42.122;24.746;2023-01-27T07:46:58;98713.59;;;4.23;100.00
2675;BME280;1347;42.122;24.746;2023-01-27T07:49:25;98711.63;;;4.35;100.00
2675;BME280;1347;42.122;24.746;2023-01-27T07:51:52;98711.00;;;4.42;100.00
2675;BME280;1347;42.122;24.746;2023-01-27T07:54:22;98707.88;;;4.56;100.00
2675;BME280;1347;42.122;24.746;2023-01-27T07:56:49;98704.72;;;4.54;100.00
2675;BME280;1347;42.122;24.746;2023-01-27T07:59:16;98715.41;;;4.62;100.00
2675;BME280;1347;42.122;24.746;2023-01-27T08:01:45;98716.19;;;4.63;100.00
2675;BME280;1347;42.122;24.746;2023-01-27T08:04:14;98716.81;;;4.72;100.00
2675;BME280;1347;42.122;24.746;2023-01-27T08:06:42;98711.56;;;4.79;100.00
2675;BME280;1347;42.122;24.746;2023-01-27T08:09:09;98714.72;;;4.65;100.00
2675;BME280;1347;42.122;24.746;2023-01-27T08:11:36;98716.81;;;4.72;100.00
2675;BME280;1347;42.122;24.746;2023-01-27T08:14:03;98724.28;;;4.75;100.00
2675;BME280;1347;42.122;24.746;2023-01-27T08:16:30;98713.22;;;4.84;100.00
2675;BME280;1347;42.122;24.746;2023-01-27T08:18:59;98716.97;;;4.79;100.00
2675;BME280;1347;42.122;24.746;2023-01-27T08:21:26;98712.88;;;4.69;100.00
2675;BME280;1347;42.122;24.746;2023-01-27T08:23:57;98710.16;;;4.69;100.00
2675;BME280;1347;42.122;24.746;2023-01-27T08:26:25;98695.19;;;4.75;100.00
2675;BME280;1347;42.122;24.746;2023-01-27T08:28:52;98685.81;;;4.73;100.00
2675;BME280;1347;42.122;24.746;2023-01-27T08:31:19;98685.63;;;4.81;100.00
2675;BME280;1347;42.122;24.746;2023-01-27T08:33:50;98674.94;;;4.89;100.00
2675;BME280;1347;42.122;24.746;2023-01-27T08:36:20;98669.41;;;5.01;100.00
2675;BME280;1347;42.122;24.746;2023-01-27T08:38:48;98669.31;;;5.13;100.00
2675;BME280;1347;42.122;24.746;2023-01-27T08:41:17;98664.81;;;5.21;100.00
2675;BME280;1347;42.122;24.746;2023-01-27T08:43:44;98662.69;;;5.30;100.00
2675;BME280;1347;42.122;24.746;2023-01-27T08:46:11;98672.13;;;5.36;100.00
2675;BME280;1347;42.122;24.746;2023-01-27T08:48:38;98674.56;;;5.06;100.00
2675;BME280;1347;42.122;24.746;2023-01-27T08:51:07;98676.22;;;5.10;100.00
2675;BME280;1347;42.122;24.746;2023-01-27T08:53:35;98683.81;;;5.21;100.00
2675;BME280;1347;42.122;24.746;2023-01-27T08:56:05;98688.66;;;5.11;100.00
2675;BME280;1347;42.122;24.746;2023-01-27T08:58:32;98684.31;;;4.91;100.00
2675;BME280;1347;42.122;24.746;2023-01-27T09:00:59;98681.00;;;4.82;100.00
2675;BME280;1347;42.122;24.746;2023-01-27T09:03:27;98693.72;;;4.78;100.00
2675;BME280;1347;42.122;24.746;2023-01-27T09:05:54;98682.66;;;4.71;100.00
2675;BME280;1347;42.122;24.746;2023-01-27T09:08:21;98678.56;;;4.77;100.00
2675;BME280;1347;42.122;24.746;2023-01-27T09:10:50;98687.66;;;4.69;100.00
2675;BME280;1347;42.122;24.746;2023-01-27T09:13:17;98686.06;;;4.84;100.00
2675;BME280;1347;42.122;24.746;2023-01-27T09:15:46;98688.50;;;4.89;100.00
2675;BME280;1347;42.122;24.746;2023-01-27T09:18:16;98683.19;;;4.92;100.00
2675;BME280;1347;42.122;24.746;2023-01-27T09:20:43;98678.69;;;5.00;100.00
2675;BME280;1347;42.122;24.746;2023-01-27T09:23:10;98672.56;;;5.03;100.00
2675;BME280;1347;42.122;24.746;2023-01-27T09:25:37;98665.09;;;5.15;100.00
2675;BME280;1347;42.122;24.746;2023-01-27T09:28:05;98662.88;;;5.21;100.00
2675;BME280;1347;42.122;24.746;2023-01-27T09:30:41;98651.53;;;5.35;100.00
2675;BME280;1347;42.122;24.746;2023-01-27T09:33:08;98646.75;;;5.28;100.00
2675;BME280;1347;42.122;24.746;2023-01-27T09:35:39;98639.38;;;5.29;100.00
2675;BME280;1347;42.122;24.746;2023-01-27T09:38:08;98639.53;;;5.36;100.00
2675;BME280;1347;42.122;24.746;2023-01-27T09:40:47;98625.28;;;5.42;100.00
2675;BME280;1347;42.122;24.746;2023-01-27T09:43:38;98624.16;;;5.43;100.00
2675;BME280;1347;42.122;24.746;2023-01-27T09:46:23;98622.09;;;5.56;100.00
2675;BME280;1347;42.122;24.746;2023-01-27T09:49:17;98627.31;;;5.65;100.00
2675;BME280;1347;42.122;24.746;2023-01-27T09:51:56;98621.50;;;5.66;100.00
2675;BME280;1347;42.122;24.746;2023-01-27T09:54:37;98629.38;;;5.52;100.00
2675;BME280;1347;42.122;24.746;2023-01-27T09:57:13;98632.88;;;5.52;100.00
2675;BME280;1347;42.122;24.746;2023-01-27T10:00:00;98636.34;;;5.49;100.00
2675;BME280;1347;42.122;24.746;2023-01-27T10:02:46;98631.66;;;5.50;100.00
2675;BME280;1347;42.122;24.746;2023-01-27T10:05:34;98646.34;;;5.45;100.00
2675;BME280;1347;42.122;24.746;2023-01-27T10:08:12;98628.75;;;5.59;100.00
2675;BME280;1347;42.122;24.746;2023-01-27T10:10:59;98623.22;;;5.74;100.00
2675;BME280;1347;42.122;24.746;2023-01-27T10:13:35;98633.81;;;5.79;100.00
2675;BME280;1347;42.122;24.746;2023-01-27T10:16:20;98634.88;;;5.75;100.00
2675;BME280;1347;42.122;24.746;2023-01-27T10:21:53;98612.78;;;5.76;100.00
2675;BME280;1347;42.122;24.746;2023-01-27T10:24:31;98610.06;;;5.76;100.00
2675;BME280;1347;42.122;24.746;2023-01-27T10:27:07;98606.81;;;5.71;100.00
2675;BME280;1347;42.122;24.746;2023-01-27T10:29:43;98595.38;;;5.81;100.00
2675;BME280;1347;42.122;24.746;2023-01-27T10:32:20;98590.38;;;5.83;100.00
2675;BME280;1347;42.122;24.746;2023-01-27T10:35:01;98589.03;;;5.73;100.00
2675;BME280;1347;42.122;24.746;2023-01-27T10:37:38;98587.22;;;5.81;100.00
2675;BME280;1347;42.122;24.746;2023-01-27T10:40:16;98581.84;;;5.84;100.00
2675;BME280;1347;42.122;24.746;2023-01-27T10:42:49;98570.97;;;5.84;100.00
2675;BME280;1347;42.122;24.746;2023-01-27T10:45:28;98573.06;;;5.91;100.00
2675;BME280;1347;42.122;24.746;2023-01-27T10:51:00;98568.13;;;6.19;100.00
2675;BME280;1347;42.122;24.746;2023-01-27T10:53:33;98567.28;;;6.15;100.00
2675;BME280;1347;42.122;24.746;2023-01-27T10:56:06;98566.47;;;6.38;100.00
2675;BME280;1347;42.122;24.746;2023-01-27T10:58:43;98567.78;;;6.47;100.00
2675;BME280;1347;42.122;24.746;2023-01-27T11:01:16;98557.91;;;6.62;100.00
2675;BME280;1347;42.122;24.746;2023-01-27T11:03:49;98561.31;;;6.82;100.00
2675;BME280;1347;42.122;24.746;2023-01-27T11:06:22;98557.81;;;6.81;100.00
2675;BME280;1347;42.122;24.746;2023-01-27T11:09:01;98550.66;;;6.99;100.00
2675;BME280;1347;42.122;24.746;2023-01-27T11:11:31;98535.53;;;7.35;100.00
2675;BME280;1347;42.122;24.746;2023-01-27T11:14:15;98527.66;;;7.64;99.00
2675;BME280;1347;42.122;24.746;2023-01-27T11:16:47;98529.16;;;7.98;98.00
2675;BME280;1347;42.122;24.746;2023-01-27T11:19:27;98527.28;;;8.06;94.98
2675;BME280;1347;42.122;24.746;2023-01-27T11:21:57;98527.81;;;8.22;94.70
2675;BME280;1347;42.122;24.746;2023-01-27T11:24:29;98534.19;;;8.33;94.13
2675;BME280;1347;42.122;24.746;2023-01-27T11:27:04;98538.28;;;8.13;94.05
2675;BME280;1347;42.122;24.746;2023-01-27T11:29:39;98548.31;;;8.02;95.40
2675;BME280;1347;42.122;24.746;2023-01-27T11:32:17;98539.34;;;7.61;94.51
2675;BME280;1347;42.122;24.746;2023-01-27T11:34:58;98554.81;;;7.20;95.89
2675;BME280;1347;42.122;24.746;2023-01-27T11:37:30;98549.22;;;7.09;97.25
2675;BME280;1347;42.122;24.746;2023-01-27T11:39:58;98550.28;;;6.71;99.17
2675;BME280;1347;42.122;24.746;2023-01-27T11:42:29;98540.22;;;6.49;100.00
2675;BME280;1347;42.122;24.746;2023-01-27T11:44:57;98536.72;;;6.52;100.00
2675;BME280;1347;42.122;24.746;2023-01-27T11:47:28;98534.97;;;6.63;100.00
2675;BME280;1347;42.122;24.746;2023-01-27T11:49:58;98525.22;;;6.36;100.00
2675;BME280;1347;42.122;24.746;2023-01-27T11:52:27;98528.22;;;6.53;100.00
2675;BME280;1347;42.122;24.746;2023-01-27T11:54:58;98525.59;;;6.60;100.00
2675;BME280;1347;42.122;24.746;2023-01-27T11:57:29;98529.34;;;6.52;100.00
2675;BME280;1347;42.122;24.746;2023-01-27T11:59:59;98519.47;;;6.67;100.00
2675;BME280;1347;42.122;24.746;2023-01-27T12:02:32;98523.81;;;6.45;100.00
2675;BME280;1347;42.122;24.746;2023-01-27T12:05:07;98527.38;;;6.49;100.00
2675;BME280;1347;42.122;24.746;2023-01-27T12:07:42;98526.88;;;6.40;100.00
2675;BME280;1347;42.122;24.746;2023-01-27T12:10:23;98525.81;;;6.48;100.00
2675;BME280;1347;42.122;24.746;2023-01-27T12:12:51;98528.63;;;6.55;100.00
2675;BME280;1347;42.122;24.746;2023-01-27T12:15:18;98516.66;;;6.60;100.00
2675;BME280;1347;42.122;24.746;2023-01-27T12:17:47;98512.50;;;6.70;100.00
2675;BME280;1347;42.122;24.746;2023-01-27T12:20:36;98507.94;;;6.77;100.00
2675;BME280;1347;42.122;24.746;2023-01-27T12:23:18;98508.53;;;6.63;100.00
2675;BME280;1347;42.122;24.746;2023-01-27T12:25:49;98506.78;;;6.78;100.00
2675;BME280;1347;42.122;24.746;2023-01-27T12:28:23;98499.91;;;6.88;100.00
2675;BME280;1347;42.122;24.746;2023-01-27T12:30:53;98506.78;;;7.08;100.00
2675;BME280;1347;42.122;24.746;2023-01-27T12:33:24;98500.19;;;7.13;100.00
2675;BME280;1347;42.122;24.746;2023-01-27T12:35:56;98493.66;;;7.54;100.00
2675;BME280;1347;42.122;24.746;2023-01-27T12:38:27;98491.75;;;7.99;99.70
2675;BME280;1347;42.122;24.746;2023-01-27T12:40:58;98498.09;;;8.10;96.65
2675;BME280;1347;42.122;24.746;2023-01-27T12:43:26;98498.31;;;7.91;95.66
2675;BME280;1347;42.122;24.746;2023-01-27T12:46:07;98495.81;;;7.75;95.39
2675;BME280;1347;42.122;24.746;2023-01-27T12:48:45;98503.72;;;7.87;97.72
2675;BME280;1347;42.122;24.746;2023-01-27T12:51:19;98494.88;;;7.57;96.44
2675;BME280;1347;42.122;24.746;2023-01-27T12:53:47;98499.78;;;7.44;97.19
2675;BME280;1347;42.122;24.746;2023-01-27T12:56:16;98495.66;;;7.24;98.21
2675;BME280;1347;42.122;24.746;2023-01-27T12:58:45;98504.38;;;7.03;98.16
2675;BME280;1347;42.122;24.746;2023-01-27T13:01:25;98500.75;;;6.92;99.32
2675;BME280;1347;42.122;24.746;2023-01-27T13:03:56;98493.59;;;6.80;98.99
2675;BME280;1347;42.122;24.746;2023-01-27T13:06:31;98479.34;;;6.64;99.89
2675;BME280;1347;42.122;24.746;2023-01-27T13:09:00;98495.31;;;6.65;100.00
2675;BME280;1347;42.122;24.746;2023-01-27T13:11:35;98491.44;;;6.67;100.00
2675;BME280;1347;42.122;24.746;2023-01-27T13:14:07;98499.63;;;6.67;100.00
2675;BME280;1347;42.122;24.746;2023-01-27T13:16:35;98498.53;;;6.71;100.00
2675;BME280;1347;42.122;24.746;2023-01-27T13:19:15;98494.22;;;6.70;100.00
2675;BME280;1347;42.122;24.746;2023-01-27T13:21:46;98492.50;;;6.58;99.57
2675;BME280;1347;42.122;24.746;2023-01-27T13:24:23;98493.59;;;6.54;100.00
2675;BME280;1347;42.122;24.746;2023-01-27T13:26:54;98495.09;;;6.48;100.00
2675;BME280;1347;42.122;24.746;2023-01-27T13:29:26;98490.63;;;6.36;100.00
2675;BME280;1347;42.122;24.746;2023-01-27T13:31:57;98502.56;;;6.28;100.00
2675;BME280;1347;42.122;24.746;2023-01-27T13:34:34;98485.72;;;6.19;100.00
2675;BME280;1347;42.122;24.746;2023-01-27T13:37:08;98496.63;;;6.22;100.00